sensor_id;sensor_type;location;lat;lon;timestamp;pressure;altitude;pressure_sealevel;temperature;humidity
55315;BME280;41619;42.816;23.226;2022-11-12T12:48:43;96866.44;;;10.07;55.08
55315;BME280;41619;42.816;23.226;2022-11-12T12:51:09;96863.38;;;10.09;54.81
55315;BME280;41619;42.816;23.226;2022-11-12T12:53:35;96865.47;;;10.03;54.72
55315;BME280;41619;42.816;23.226;2022-11-12T12:56:44;96869.03;;;9.95;54.87
55315;BME280;41619;42.816;23.226;2022-11-12T12:58:49;96876.97;;;9.88;54.53
55315;BME280;41619;42.816;23.226;2022-11-12T13:04:03;96867.00;;;9.75;54.92
55315;BME280;41619;42.816;23.226;2022-11-12T13:19:31;96877.31;;;9.69;56.07
55315;BME280;41619;42.816;23.226;2022-11-12T13:32:52;96894.34;;;9.66;58.14
55315;BME280;41619;42.816;23.226;2022-11-12T13:43:10;96884.09;;;9.54;58.33
55315;BME280;41619;42.816;23.226;2022-11-12T13:45:54;96881.84;;;9.48;58.89
55315;BME280;41619;42.816;23.226;2022-11-12T13:48:44;96887.47;;;9.43;58.93
55315;BME280;41619;42.816;23.226;2022-11-12T13:51:17;96877.38;;;9.34;58.88
55315;BME280;41619;42.816;23.226;2022-11-12T13:53:44;96886.03;;;9.28;58.79
55315;BME280;41619;42.816;23.226;2022-11-12T13:56:11;96887.16;;;9.27;58.98
55315;BME280;41619;42.816;23.226;2022-11-12T13:58:37;96880.72;;;9.23;59.54
55315;BME280;41619;42.816;23.226;2022-11-12T14:01:09;96884.59;;;9.22;59.33
55315;BME280;41619;42.816;23.226;2022-11-12T14:06:05;96884.13;;;9.11;59.81
55315;BME280;41619;42.816;23.226;2022-11-12T14:11:06;96886.84;;;9.11;60.30
55315;BME280;41619;42.816;23.226;2022-11-12T14:21:37;96882.66;;;9.05;60.31
55315;BME280;41619;42.816;23.226;2022-11-12T14:24:03;96879.91;;;9.05;60.63
55315;BME280;41619;42.816;23.226;2022-11-12T14:26:55;96875.59;;;9.04;60.38
55315;BME280;41619;42.816;23.226;2022-11-12T14:29:20;96876.22;;;9.01;60.39
55315;BME280;41619;42.816;23.226;2022-11-12T14:31:46;96872.69;;;9.00;60.58
55315;BME280;41619;42.816;23.226;2022-11-12T14:34:19;96880.09;;;9.00;60.64
55315;BME280;41619;42.816;23.226;2022-11-12T14:36:45;96882.03;;;8.99;60.82
55315;BME280;41619;42.816;23.226;2022-11-12T14:39:11;96872.22;;;8.98;60.67
55315;BME280;41619;42.816;23.226;2022-11-12T14:41:40;96884.44;;;9.01;60.64
55315;BME280;41619;42.816;23.226;2022-11-12T14:44:15;96875.44;;;9.00;60.65
55315;BME280;41619;42.816;23.226;2022-11-12T14:46:54;96875.59;;;8.95;60.70
55315;BME280;41619;42.816;23.226;2022-11-12T14:49:26;96872.38;;;8.93;61.13
55315;BME280;41619;42.816;23.226;2022-11-12T14:52:11;96881.66;;;8.92;60.96
55315;BME280;41619;42.816;23.226;2022-11-12T14:54:50;96883.91;;;8.90;61.26
55315;BME280;41619;42.816;23.226;2022-11-12T14:57:27;96873.97;;;8.86;61.01
55315;BME280;41619;42.816;23.226;2022-11-12T14:59:54;96881.50;;;8.89;61.51
55315;BME280;41619;42.816;23.226;2022-11-12T15:02:26;96879.91;;;8.88;61.30
55315;BME280;41619;42.816;23.226;2022-11-12T15:05:00;96885.38;;;8.88;61.54
55315;BME280;41619;42.816;23.226;2022-11-12T15:07:33;96884.56;;;8.87;61.75
55315;BME280;41619;42.816;23.226;2022-11-12T15:10:00;96871.56;;;8.84;61.86
55315;BME280;41619;42.816;23.226;2022-11-12T15:12:45;96881.19;;;8.82;62.61
55315;BME280;41619;42.816;23.226;2022-11-12T15:15:18;96881.03;;;8.78;62.99
55315;BME280;41619;42.816;23.226;2022-11-12T15:17:46;96874.44;;;8.79;63.02
55315;BME280;41619;42.816;23.226;2022-11-12T15:20:13;96881.84;;;8.78;64.08
55315;BME280;41619;42.816;23.226;2022-11-12T15:22:40;96886.81;;;8.76;63.55
55315;BME280;41619;42.816;23.226;2022-11-12T15:25:29;96891.47;;;8.76;63.90
55315;BME280;41619;42.816;23.226;2022-11-12T15:27:55;96887.41;;;8.73;64.34
55315;BME280;41619;42.816;23.226;2022-11-12T15:30:35;96890.78;;;8.70;64.10
55315;BME280;41619;42.816;23.226;2022-11-12T15:35:37;96887.09;;;8.66;64.83
55315;BME280;41619;42.816;23.226;2022-11-12T15:38:16;96887.41;;;8.65;64.98
55315;BME280;41619;42.816;23.226;2022-11-12T15:40:45;96885.00;;;8.63;65.17
55315;BME280;41619;42.816;23.226;2022-11-12T15:43:28;96883.41;;;8.62;65.42
55315;BME280;41619;42.816;23.226;2022-11-12T15:45:54;96884.53;;;8.61;65.55
55315;BME280;41619;42.816;23.226;2022-11-12T15:48:21;96887.09;;;8.58;65.76
55315;BME280;41619;42.816;23.226;2022-11-12T15:50:46;96887.69;;;8.55;66.10
55315;BME280;41619;42.816;23.226;2022-11-12T15:53:12;96885.13;;;8.49;65.87
55315;BME280;41619;42.816;23.226;2022-11-12T15:55:38;96891.38;;;8.41;66.20
55315;BME280;41619;42.816;23.226;2022-11-12T15:58:14;96895.84;;;8.37;66.32
55315;BME280;41619;42.816;23.226;2022-11-12T16:00:41;96890.69;;;8.36;66.86
55315;BME280;41619;42.816;23.226;2022-11-12T16:05:34;96901.25;;;8.29;66.85
55315;BME280;41619;42.816;23.226;2022-11-12T16:08:00;96900.44;;;8.28;67.12
55315;BME280;41619;42.816;23.226;2022-11-12T16:10:25;96893.53;;;8.22;66.89
55315;BME280;41619;42.816;23.226;2022-11-12T16:12:51;96901.38;;;8.24;67.12
55315;BME280;41619;42.816;23.226;2022-11-12T16:15:21;96903.31;;;8.23;66.90
55315;BME280;41619;42.816;23.226;2022-11-12T16:17:50;96907.66;;;8.24;67.19
55315;BME280;41619;42.816;23.226;2022-11-12T16:20:20;96909.88;;;8.22;67.02
55315;BME280;41619;42.816;23.226;2022-11-12T16:22:50;96912.44;;;8.18;67.40
55315;BME280;41619;42.816;23.226;2022-11-12T16:25:16;96918.97;;;8.17;66.99
55315;BME280;41619;42.816;23.226;2022-11-12T16:27:42;96925.56;;;8.16;66.97
55315;BME280;41619;42.816;23.226;2022-11-12T16:30:22;96928.13;;;8.13;67.52
55315;BME280;41619;42.816;23.226;2022-11-12T16:32:48;96935.63;;;8.07;67.60
55315;BME280;41619;42.816;23.226;2022-11-12T16:35:14;96933.66;;;7.99;68.35
55315;BME280;41619;42.816;23.226;2022-11-12T16:37:44;96934.41;;;7.91;68.19
55315;BME280;41619;42.816;23.226;2022-11-12T16:40:15;96924.78;;;7.85;68.40
55315;BME280;41619;42.816;23.226;2022-11-12T16:42:41;96912.06;;;7.80;69.12
55315;BME280;41619;42.816;23.226;2022-11-12T16:45:20;96909.22;;;7.85;68.87
55315;BME280;41619;42.816;23.226;2022-11-12T16:47:48;96902.03;;;7.89;69.10
55315;BME280;41619;42.816;23.226;2022-11-12T16:50:17;96893.22;;;7.93;69.23
55315;BME280;41619;42.816;23.226;2022-11-12T16:52:43;96893.53;;;7.91;69.08
55315;BME280;41619;42.816;23.226;2022-11-12T16:55:09;96909.25;;;7.94;69.36
55315;BME280;41619;42.816;23.226;2022-11-12T16:57:35;96907.16;;;7.91;69.34
55315;BME280;41619;42.816;23.226;2022-11-12T17:00:01;96910.38;;;7.93;69.25
55315;BME280;41619;42.816;23.226;2022-11-12T17:02:26;96907.97;;;7.92;69.24
55315;BME280;41619;42.816;23.226;2022-11-12T17:04:52;96909.06;;;7.90;69.33
55315;BME280;41619;42.816;23.226;2022-11-12T17:07:17;96910.19;;;7.89;69.63
55315;BME280;41619;42.816;23.226;2022-11-12T17:09:42;96903.13;;;7.88;69.63
55315;BME280;41619;42.816;23.226;2022-11-12T17:12:08;96907.47;;;7.89;69.39
55315;BME280;41619;42.816;23.226;2022-11-12T17:14:34;96907.66;;;7.93;69.63
55315;BME280;41619;42.816;23.226;2022-11-12T17:16:59;96897.22;;;7.95;69.93
55315;BME280;41619;42.816;23.226;2022-11-12T17:19:25;96898.84;;;7.96;69.44
55315;BME280;41619;42.816;23.226;2022-11-12T17:21:50;96906.38;;;7.99;69.70
55315;BME280;41619;42.816;23.226;2022-11-12T17:24:16;96906.38;;;7.99;69.78
55315;BME280;41619;42.816;23.226;2022-11-12T17:26:41;96908.03;;;8.00;69.72
55315;BME280;41619;42.816;23.226;2022-11-12T17:29:07;96910.75;;;8.00;70.03
55315;BME280;41619;42.816;23.226;2022-11-12T17:31:32;96904.78;;;7.98;69.24
55315;BME280;41619;42.816;23.226;2022-11-12T17:33:58;96903.50;;;7.96;69.60
55315;BME280;41619;42.816;23.226;2022-11-12T17:36:25;96910.53;;;7.97;70.19
55315;BME280;41619;42.816;23.226;2022-11-12T17:38:58;96915.19;;;7.96;70.00
55315;BME280;41619;42.816;23.226;2022-11-12T17:41:25;96901.88;;;7.95;70.45
55315;BME280;41619;42.816;23.226;2022-11-12T17:43:54;96902.50;;;7.92;70.53
55315;BME280;41619;42.816;23.226;2022-11-12T17:46:20;96907.81;;;7.97;69.95
55315;BME280;41619;42.816;23.226;2022-11-12T17:48:45;96899.97;;;7.95;70.02
55315;BME280;41619;42.816;23.226;2022-11-12T17:51:16;96911.97;;;7.94;70.50
55315;BME280;41619;42.816;23.226;2022-11-12T17:53:42;96913.09;;;7.93;70.21
55315;BME280;41619;42.816;23.226;2022-11-12T17:56:11;96910.06;;;7.95;70.15
55315;BME280;41619;42.816;23.226;2022-11-12T17:58:37;96913.91;;;7.94;70.12
55315;BME280;41619;42.816;23.226;2022-11-12T18:01:14;96914.38;;;7.96;70.08
55315;BME280;41619;42.816;23.226;2022-11-12T18:03:41;96914.06;;;7.97;70.35
55315;BME280;41619;42.816;23.226;2022-11-12T18:06:19;96906.91;;;8.01;69.94
55315;BME280;41619;42.816;23.226;2022-11-12T18:08:45;96901.44;;;8.01;69.74
55315;BME280;41619;42.816;23.226;2022-11-12T18:11:13;96897.28;;;8.04;69.41
55315;BME280;41619;42.816;23.226;2022-11-12T18:13:38;96903.88;;;8.03;69.27
55315;BME280;41619;42.816;23.226;2022-11-12T18:16:14;96904.53;;;8.08;69.90
55315;BME280;41619;42.816;23.226;2022-11-12T18:18:40;96905.31;;;8.09;69.65
55315;BME280;41619;42.816;23.226;2022-11-12T18:21:05;96914.78;;;8.11;69.22
55315;BME280;41619;42.816;23.226;2022-11-12T18:23:35;96913.69;;;8.12;69.40
55315;BME280;41619;42.816;23.226;2022-11-12T18:26:00;96919.13;;;8.12;69.10
55315;BME280;41619;42.816;23.226;2022-11-12T18:28:25;96920.25;;;8.11;69.46
55315;BME280;41619;42.816;23.226;2022-11-12T18:30:58;96926.50;;;8.12;69.07
55315;BME280;41619;42.816;23.226;2022-11-12T18:33:23;96921.53;;;8.14;69.47
55315;BME280;41619;42.816;23.226;2022-11-12T18:36:01;96922.03;;;8.16;69.01
55315;BME280;41619;42.816;23.226;2022-11-12T18:38:27;96917.38;;;8.16;69.05
55315;BME280;41619;42.816;23.226;2022-11-12T18:41:06;96912.72;;;8.17;68.93
55315;BME280;41619;42.816;23.226;2022-11-12T18:43:32;96921.44;;;8.19;68.75
55315;BME280;41619;42.816;23.226;2022-11-12T18:45:58;96920.31;;;8.20;68.84
55315;BME280;41619;42.816;23.226;2022-11-12T18:48:26;96929.94;;;8.26;68.83
55315;BME280;41619;42.816;23.226;2022-11-12T18:50:56;96926.59;;;8.29;68.54
55315;BME280;41619;42.816;23.226;2022-11-12T18:53:22;96922.75;;;8.30;68.45
55315;BME280;41619;42.816;23.226;2022-11-12T18:55:47;96919.38;;;8.33;68.08
55315;BME280;41619;42.816;23.226;2022-11-12T18:58:13;96913.13;;;8.33;67.76
55315;BME280;41619;42.816;23.226;2022-11-12T19:00:38;96922.94;;;8.34;67.54
55315;BME280;41619;42.816;23.226;2022-11-12T19:03:04;96926.97;;;8.36;67.53
55315;BME280;41619;42.816;23.226;2022-11-12T19:05:29;96927.78;;;8.37;67.39
55315;BME280;41619;42.816;23.226;2022-11-12T19:07:54;96912.50;;;8.36;67.61
55315;BME280;41619;42.816;23.226;2022-11-12T19:10:20;96911.44;;;8.37;67.68
55315;BME280;41619;42.816;23.226;2022-11-12T19:12:45;96917.38;;;8.39;67.58
55315;BME280;41619;42.816;23.226;2022-11-12T19:15:10;96924.75;;;8.38;67.57
55315;BME280;41619;42.816;23.226;2022-11-12T19:17:36;96923.94;;;8.38;67.54
55315;BME280;41619;42.816;23.226;2022-11-12T19:20:02;96926.47;;;8.34;67.14
55315;BME280;41619;42.816;23.226;2022-11-12T19:22:27;96931.63;;;8.36;66.79
55315;BME280;41619;42.816;23.226;2022-11-12T19:24:53;96915.56;;;8.34;67.25
55315;BME280;41619;42.816;23.226;2022-11-12T19:27:18;96925.66;;;8.34;66.78
55315;BME280;41619;42.816;23.226;2022-11-12T19:29:44;96932.22;;;8.33;66.83
55315;BME280;41619;42.816;23.226;2022-11-12T19:32:11;96928.50;;;8.29;67.01
55315;BME280;41619;42.816;23.226;2022-11-12T19:34:37;96931.56;;;8.27;66.97
55315;BME280;41619;42.816;23.226;2022-11-12T19:37:02;96932.69;;;8.26;67.19
55315;BME280;41619;42.816;23.226;2022-11-12T19:39:28;96937.31;;;8.26;67.30
55315;BME280;41619;42.816;23.226;2022-11-12T19:41:53;96941.66;;;8.27;67.14
55315;BME280;41619;42.816;23.226;2022-11-12T19:44:19;96944.88;;;8.29;67.35
55315;BME280;41619;42.816;23.226;2022-11-12T19:46:45;96938.78;;;8.32;67.25
55315;BME280;41619;42.816;23.226;2022-11-12T19:49:10;96933.03;;;8.33;67.22
55315;BME280;41619;42.816;23.226;2022-11-12T19:51:35;96921.63;;;8.31;67.32
55315;BME280;41619;42.816;23.226;2022-11-12T19:54:01;96924.97;;;8.28;67.17
55315;BME280;41619;42.816;23.226;2022-11-12T19:56:26;96934.91;;;8.24;67.30
55315;BME280;41619;42.816;23.226;2022-11-12T19:58:51;96934.53;;;8.17;67.21
55315;BME280;41619;42.816;23.226;2022-11-12T20:01:19;96939.34;;;8.11;67.31
55315;BME280;41619;42.816;23.226;2022-11-12T20:03:44;96934.03;;;8.06;67.46
55315;BME280;41619;42.816;23.226;2022-11-12T20:06:20;96939.31;;;8.03;67.00
55315;BME280;41619;42.816;23.226;2022-11-12T20:08:47;96929.84;;;8.00;67.04
55315;BME280;41619;42.816;23.226;2022-11-12T20:11:13;96939.09;;;7.99;67.15
55315;BME280;41619;42.816;23.226;2022-11-12T20:13:40;96935.28;;;8.00;67.18
55315;BME280;41619;42.816;23.226;2022-11-12T20:16:08;96948.13;;;8.00;67.71
55315;BME280;41619;42.816;23.226;2022-11-12T20:18:35;96959.19;;;8.03;67.24
55315;BME280;41619;42.816;23.226;2022-11-12T20:21:00;96959.38;;;8.07;67.07
55315;BME280;41619;42.816;23.226;2022-11-12T20:23:29;96958.75;;;8.10;66.83
55315;BME280;41619;42.816;23.226;2022-11-12T20:26:07;96959.88;;;8.09;66.98
55315;BME280;41619;42.816;23.226;2022-11-12T20:28:34;96961.97;;;8.12;66.94
55315;BME280;41619;42.816;23.226;2022-11-12T20:31:14;96968.66;;;8.06;66.62
55315;BME280;41619;42.816;23.226;2022-11-12T20:33:41;96967.00;;;7.96;66.89
55315;BME280;41619;42.816;23.226;2022-11-12T20:38:41;96966.78;;;7.84;67.73
55315;BME280;41619;42.816;23.226;2022-11-12T20:41:11;96961.75;;;7.77;67.39
55315;BME280;41619;42.816;23.226;2022-11-12T20:43:37;96972.94;;;7.76;67.68
55315;BME280;41619;42.816;23.226;2022-11-12T20:46:03;96966.22;;;7.73;68.17
55315;BME280;41619;42.816;23.226;2022-11-12T20:48:28;96964.09;;;7.70;68.24
55315;BME280;41619;42.816;23.226;2022-11-12T20:51:09;96973.88;;;7.71;68.91
55315;BME280;41619;42.816;23.226;2022-11-12T20:53:35;96969.56;;;7.70;68.90
55315;BME280;41619;42.816;23.226;2022-11-12T20:58:33;96968.63;;;7.75;68.98
55315;BME280;41619;42.816;23.226;2022-11-12T21:00:59;96960.44;;;7.75;69.27
55315;BME280;41619;42.816;23.226;2022-11-12T21:03:24;96968.69;;;7.83;69.18
55315;BME280;41619;42.816;23.226;2022-11-12T21:06:01;96958.59;;;7.84;68.84
55315;BME280;41619;42.816;23.226;2022-11-12T21:08:28;96975.31;;;7.91;69.43
55315;BME280;41619;42.816;23.226;2022-11-12T21:10:54;96964.56;;;7.95;69.25
55315;BME280;41619;42.816;23.226;2022-11-12T21:13:19;96963.16;;;7.97;68.76
55315;BME280;41619;42.816;23.226;2022-11-12T21:15:46;96961.13;;;8.03;68.95
55315;BME280;41619;42.816;23.226;2022-11-12T21:18:11;96960.50;;;8.06;69.21
55315;BME280;41619;42.816;23.226;2022-11-12T21:20:37;96959.38;;;8.07;68.80
55315;BME280;41619;42.816;23.226;2022-11-12T21:23:03;96967.22;;;8.08;69.27
55315;BME280;41619;42.816;23.226;2022-11-12T21:25:28;96961.78;;;8.08;69.33
55315;BME280;41619;42.816;23.226;2022-11-12T21:27:53;96967.22;;;8.08;69.23
55315;BME280;41619;42.816;23.226;2022-11-12T21:30:19;96963.72;;;8.08;69.17
55315;BME280;41619;42.816;23.226;2022-11-12T21:32:44;96961.78;;;8.08;69.22
55315;BME280;41619;42.816;23.226;2022-11-12T21:35:10;96968.03;;;8.09;69.03
55315;BME280;41619;42.816;23.226;2022-11-12T21:37:35;96965.31;;;8.09;69.20
55315;BME280;41619;42.816;23.226;2022-11-12T21:40:01;96975.59;;;8.12;69.38
55315;BME280;41619;42.816;23.226;2022-11-12T21:42:26;96970.94;;;8.12;69.17
55315;BME280;41619;42.816;23.226;2022-11-12T21:44:52;96972.22;;;8.15;69.31
55315;BME280;41619;42.816;23.226;2022-11-12T21:47:17;96972.72;;;8.17;69.64
55315;BME280;41619;42.816;23.226;2022-11-12T21:49:43;96966.16;;;8.18;69.60
55315;BME280;41619;42.816;23.226;2022-11-12T21:52:08;96964.84;;;8.15;69.36
55315;BME280;41619;42.816;23.226;2022-11-12T21:54:37;96971.31;;;8.19;69.73
55315;BME280;41619;42.816;23.226;2022-11-12T21:57:02;96969.72;;;8.18;69.57
55315;BME280;41619;42.816;23.226;2022-11-12T21:59:28;96972.13;;;8.20;69.26
55315;BME280;41619;42.816;23.226;2022-11-12T22:01:53;96963.13;;;8.19;68.96
55315;BME280;41619;42.816;23.226;2022-11-12T22:04:18;96962.63;;;8.17;69.03
55315;BME280;41619;42.816;23.226;2022-11-12T22:06:44;96965.88;;;8.19;69.18
55315;BME280;41619;42.816;23.226;2022-11-12T22:09:09;96962.03;;;8.20;69.12
55315;BME280;41619;42.816;23.226;2022-11-12T22:11:34;96968.44;;;8.25;68.85
55315;BME280;41619;42.816;23.226;2022-11-12T22:14:00;96970.06;;;8.26;69.29
55315;BME280;41619;42.816;23.226;2022-11-12T22:16:26;96963.47;;;8.27;69.21
55315;BME280;41619;42.816;23.226;2022-11-12T22:18:54;96972.16;;;8.29;68.81
55315;BME280;41619;42.816;23.226;2022-11-12T22:21:31;96959.81;;;8.31;68.95
55315;BME280;41619;42.816;23.226;2022-11-12T22:23:57;96966.59;;;8.34;68.65
55315;BME280;41619;42.816;23.226;2022-11-12T22:26:25;96963.84;;;8.34;69.07
55315;BME280;41619;42.816;23.226;2022-11-12T22:28:52;96959.22;;;8.34;68.69
55315;BME280;41619;42.816;23.226;2022-11-12T22:31:20;96962.75;;;8.35;68.80
55315;BME280;41619;42.816;23.226;2022-11-12T22:33:46;96958.09;;;8.35;68.67
55315;BME280;41619;42.816;23.226;2022-11-12T22:36:15;96952.84;;;8.39;68.51
55315;BME280;41619;42.816;23.226;2022-11-12T22:38:43;96949.78;;;8.40;68.17
55315;BME280;41619;42.816;23.226;2022-11-12T22:41:14;96950.28;;;8.42;68.27
55315;BME280;41619;42.816;23.226;2022-11-12T22:43:40;96944.00;;;8.42;68.35
55315;BME280;41619;42.816;23.226;2022-11-12T22:46:11;96953.16;;;8.46;67.96
55315;BME280;41619;42.816;23.226;2022-11-12T22:48:37;96954.78;;;8.47;67.98
55315;BME280;41619;42.816;23.226;2022-11-12T22:51:06;96959.91;;;8.48;67.99
55315;BME280;41619;42.816;23.226;2022-11-12T22:53:32;96957.50;;;8.47;67.93
55315;BME280;41619;42.816;23.226;2022-11-12T22:56:01;96947.88;;;8.49;68.05
55315;BME280;41619;42.816;23.226;2022-11-12T22:58:28;96949.50;;;8.50;68.17
55315;BME280;41619;42.816;23.226;2022-11-12T23:00:53;96949.97;;;8.53;67.85
55315;BME280;41619;42.816;23.226;2022-11-12T23:03:19;96943.41;;;8.54;67.74
55315;BME280;41619;42.816;23.226;2022-11-12T23:05:44;96948.25;;;8.57;68.11
55315;BME280;41619;42.816;23.226;2022-11-12T23:08:10;96941.19;;;8.56;67.84
55315;BME280;41619;42.816;23.226;2022-11-12T23:10:36;96943.59;;;8.57;67.90
55315;BME280;41619;42.816;23.226;2022-11-12T23:13:02;96948.09;;;8.62;67.96
55315;BME280;41619;42.816;23.226;2022-11-12T23:15:28;96950.50;;;8.63;67.66
55315;BME280;41619;42.816;23.226;2022-11-12T23:17:53;96951.00;;;8.65;67.75
55315;BME280;41619;42.816;23.226;2022-11-12T23:20:19;96942.00;;;8.65;67.93
55315;BME280;41619;42.816;23.226;2022-11-12T23:22:44;96938.94;;;8.66;67.75
55315;BME280;41619;42.816;23.226;2022-11-12T23:25:09;96939.44;;;8.68;67.90
55315;BME280;41619;42.816;23.226;2022-11-12T23:27:36;96942.97;;;8.69;67.76
55315;BME280;41619;42.816;23.226;2022-11-12T23:30:03;96935.41;;;8.66;68.02
55315;BME280;41619;42.816;23.226;2022-11-12T23:32:29;96940.06;;;8.65;67.48
55315;BME280;41619;42.816;23.226;2022-11-12T23:34:54;96943.59;;;8.66;67.67
55315;BME280;41619;42.816;23.226;2022-11-12T23:37:19;96936.22;;;8.66;67.92
55315;BME280;41619;42.816;23.226;2022-11-12T23:39:45;96931.56;;;8.67;68.01
55315;BME280;41619;42.816;23.226;2022-11-12T23:42:10;96925.00;;;8.68;67.96
55315;BME280;41619;42.816;23.226;2022-11-12T23:44:36;96930.75;;;8.66;67.71
55315;BME280;41619;42.816;23.226;2022-11-12T23:47:01;96934.63;;;8.65;68.04
55315;BME280;41619;42.816;23.226;2022-11-12T23:49:26;96923.22;;;8.63;67.92
55315;BME280;41619;42.816;23.226;2022-11-12T23:51:52;96923.53;;;8.62;67.89
55315;BME280;41619;42.816;23.226;2022-11-12T23:54:17;96923.53;;;8.62;68.15
55315;BME280;41619;42.816;23.226;2022-11-12T23:56:42;96920.31;;;8.60;67.92
55315;BME280;41619;42.816;23.226;2022-11-12T23:59:08;96923.06;;;8.60;67.72
